createdAt,value
2023-05-07T00:01:32.509Z,97064.28
2023-05-07T00:03:59.711Z,97071.50
2023-05-07T00:06:27.101Z,97070.03
2023-05-07T00:08:53.600Z,97070.13
2023-05-07T00:11:20.800Z,97073.25
2023-05-07T00:13:48.851Z,97072.38
2023-05-07T00:16:19.272Z,97071.03
2023-05-07T00:18:46.182Z,97066.94
2023-05-07T00:21:12.935Z,97074.22
2023-05-07T00:23:39.435Z,97073.59
2023-05-07T00:26:49.642Z,97066.72
2023-05-07T00:29:24.156Z,97068.59
2023-05-07T00:31:51.738Z,97061.75
2023-05-07T00:34:19.679Z,97068.00
2023-05-07T00:36:46.219Z,97072.41
2023-05-07T00:39:13.417Z,97070.84
2023-05-07T00:41:39.957Z,97066.63
2023-05-07T00:44:06.457Z,97070.28
2023-05-07T00:46:59.711Z,97066.19
2023-05-07T00:49:39.950Z,97072.53
2023-05-07T00:52:22.829Z,97066.53
2023-05-07T00:54:54.148Z,97065.09
2023-05-07T00:57:22.705Z,97071.19
2023-05-07T01:00:22.873Z,97065.09
2023-05-07T01:02:50.284Z,97068.78
2023-05-07T01:05:19.968Z,97063.81
2023-05-07T01:07:48.377Z,97071.00
2023-05-07T01:10:55.195Z,97062.47
2023-05-07T01:13:34.748Z,97062.66
2023-05-07T01:16:01.504Z,97065.22
2023-05-07T01:18:30.153Z,97060.03
2023-05-07T01:21:00.971Z,97060.13
2023-05-07T01:23:28.772Z,97058.44
2023-05-07T01:25:55.990Z,97066.81
2023-05-07T01:28:22.943Z,97059.63
2023-05-07T01:30:54.487Z,97057.22
2023-05-07T01:33:38.333Z,97062.25
2023-05-07T01:36:07.647Z,97067.75
2023-05-07T01:38:39.537Z,97063.72
2023-05-07T01:41:18.610Z,97069.63
2023-05-07T01:43:45.676Z,97065.22
2023-05-07T01:46:13.415Z,97067.94
2023-05-07T01:52:47.769Z,97071.31
2023-05-07T01:55:18.866Z,97074.06
2023-05-07T01:57:45.514Z,97068.91
2023-05-07T02:00:12.689Z,97068.16
2023-05-07T02:13:21.897Z,97059.25
2023-05-07T02:15:51.315Z,97057.66
2023-05-07T02:22:17.150Z,97068.28
2023-05-07T02:24:43.697Z,97061.88
2023-05-07T02:27:54.206Z,97064.59
2023-05-07T02:30:22.275Z,97057.56
2023-05-07T02:32:49.035Z,97065.00
2023-05-07T02:45:10.921Z,97065.13
2023-05-07T02:48:01.220Z,97067.56
2023-05-07T02:50:28.128Z,97067.09
2023-05-07T02:52:54.841Z,97072.91
2023-05-07T02:55:21.424Z,97072.06
2023-05-07T03:01:50.275Z,97066.16
2023-05-07T03:13:09.250Z,97071.78
2023-05-07T03:15:46.138Z,97081.44
2023-05-07T03:18:12.766Z,97075.00
2023-05-07T03:20:56.145Z,97079.22
2023-05-07T03:23:24.669Z,97078.50
2023-05-07T03:25:51.725Z,97079.44
2023-05-07T03:28:18.288Z,97076.81
2023-05-07T03:47:11.804Z,97071.84
2023-05-07T03:57:28.085Z,97085.13
2023-05-07T04:07:16.037Z,97089.75
2023-05-07T04:09:42.601Z,97089.44
2023-05-07T04:13:09.351Z,97093.75
2023-05-07T04:15:36.923Z,97083.31
2023-05-07T04:21:58.052Z,97079.59
2023-05-07T04:33:24.124Z,97071.63
2023-05-07T04:43:26.517Z,97083.44
2023-05-07T04:45:53.313Z,97097.25
2023-05-07T04:48:20.652Z,97099.78
2023-05-07T04:50:51.767Z,97104.69
2023-05-07T04:54:15.593Z,97105.22
2023-05-07T04:56:42.445Z,97105.28
2023-05-07T04:59:53.658Z,97111.97
2023-05-07T05:02:20.909Z,97113.34
2023-05-07T05:04:47.615Z,97120.84
2023-05-07T05:07:14.344Z,97129.41
2023-05-07T05:09:40.857Z,97130.44
2023-05-07T05:12:08.345Z,97133.84
2023-05-07T05:14:52.637Z,97138.19
2023-05-07T05:17:22.738Z,97135.31
2023-05-07T05:20:40.437Z,97133.59
2023-05-07T05:23:32.919Z,97138.22
2023-05-07T05:26:40.475Z,97138.59
2023-05-07T05:29:38.101Z,97134.53
2023-05-07T05:36:06.967Z,97126.94
2023-05-07T05:38:33.558Z,97113.91
2023-05-07T05:41:00.125Z,97119.03
2023-05-07T05:43:26.667Z,97114.81
2023-05-07T05:45:53.239Z,97114.53
2023-05-07T05:48:20.720Z,97116.19
2023-05-07T05:50:47.192Z,97124.03
2023-05-07T05:53:13.671Z,97120.59
2023-05-07T05:55:40.366Z,97119.72
2023-05-07T05:58:06.889Z,97117.00
2023-05-07T06:00:33.653Z,97125.41
2023-05-07T06:03:00.538Z,97118.53
2023-05-07T06:05:27.734Z,97117.53
2023-05-07T06:07:54.450Z,97120.22
2023-05-07T06:10:21.026Z,97122.59
2023-05-07T06:12:47.629Z,97126.44
2023-05-07T06:15:14.163Z,97120.63
2023-05-07T06:17:40.900Z,97127.06
2023-05-07T06:20:08.223Z,97126.59
2023-05-07T06:22:34.876Z,97114.91
2023-05-07T06:25:01.536Z,97124.66
2023-05-07T06:27:29.029Z,97124.00
2023-05-07T06:29:55.662Z,97124.03
2023-05-07T06:32:22.308Z,97116.78
2023-05-07T06:34:48.825Z,97128.34
2023-05-07T06:37:15.594Z,97128.47
2023-05-07T06:39:42.171Z,97122.41
2023-05-07T06:42:08.640Z,97128.63
2023-05-07T06:44:35.166Z,97120.84
2023-05-07T06:47:02.240Z,97121.88
2023-05-07T06:49:29.105Z,97122.84
2023-05-07T06:51:56.440Z,97126.63
2023-05-07T06:54:24.444Z,97126.28
2023-05-07T06:56:51.470Z,97121.66
2023-05-07T07:02:10.590Z,97128.88
2023-05-07T07:05:05.110Z,97122.41
2023-05-07T07:07:43.428Z,97133.78
2023-05-07T07:13:47.423Z,97123.44
2023-05-07T07:39:29.983Z,97124.25
2023-05-07T07:42:06.959Z,97120.75
2023-05-07T07:44:40.831Z,97119.72
2023-05-07T07:47:07.434Z,97123.91
2023-05-07T07:49:34.020Z,97119.28
2023-05-07T07:52:01.775Z,97122.13
2023-05-07T07:54:28.274Z,97124.81
2023-05-07T07:56:54.928Z,97126.16
2023-05-07T07:59:21.590Z,97129.44
2023-05-07T08:02:01.211Z,97120.31
2023-05-07T08:04:31.531Z,97113.38
2023-05-07T08:07:12.621Z,97119.81
2023-05-07T08:09:53.023Z,97120.22
2023-05-07T08:12:43.695Z,97115.25
2023-05-07T08:16:17.766Z,97113.53
2023-05-07T08:22:44.699Z,97118.16
2023-05-07T08:25:43.613Z,97113.94
2023-05-07T08:39:49.097Z,97119.81
2023-05-07T09:02:38.338Z,97111.97
2023-05-07T09:12:50.465Z,97122.53
2023-05-07T09:15:17.231Z,97127.81
2023-05-07T09:17:44.552Z,97119.09
2023-05-07T09:20:38.343Z,97116.31
2023-05-07T09:23:05.376Z,97115.19
2023-05-07T09:25:33.444Z,97114.69
2023-05-07T09:28:04.852Z,97100.00
2023-05-07T09:30:32.647Z,97110.81
2023-05-07T09:33:00.385Z,97101.22
2023-05-07T09:35:28.477Z,97103.63
2023-05-07T09:37:56.637Z,97090.47
2023-05-07T09:40:25.125Z,97108.38
2023-05-07T09:47:15.739Z,97096.03
2023-05-07T09:53:49.640Z,97086.91
2023-05-07T09:56:17.447Z,97087.44
2023-05-07T09:58:44.766Z,97087.69
2023-05-07T10:01:13.073Z,97085.59
2023-05-07T10:03:43.557Z,97093.81
2023-05-07T10:06:11.693Z,97092.66
2023-05-07T10:09:34.507Z,97094.47
2023-05-07T10:12:04.003Z,97094.47
2023-05-07T10:14:30.807Z,97081.72
2023-05-07T10:17:13.847Z,97085.31
2023-05-07T10:23:30.444Z,97077.91
2023-05-07T10:26:10.027Z,97086.47
2023-05-07T10:28:43.994Z,97085.03
2023-05-07T10:38:27.896Z,97076.88
2023-05-07T10:40:54.872Z,97086.47
2023-05-07T10:43:21.465Z,97085.31
2023-05-07T10:46:15.602Z,97080.09
2023-05-07T10:49:04.278Z,97076.28
2023-05-07T10:52:19.107Z,97083.13
2023-05-07T11:03:01.360Z,97071.84
2023-05-07T11:05:34.403Z,97070.06
2023-05-07T11:08:04.171Z,97069.91
2023-05-07T11:10:59.154Z,97078.44
2023-05-07T11:13:45.858Z,97071.97
2023-05-07T11:16:19.088Z,97066.97
2023-05-07T11:18:54.376Z,97063.94
2023-05-07T11:21:33.758Z,97066.09
2023-05-07T11:27:53.529Z,97053.81
2023-05-07T11:30:43.439Z,97055.47
2023-05-07T11:33:12.370Z,97065.47
2023-05-07T11:35:46.890Z,97060.38
2023-05-07T11:38:14.355Z,97059.00
2023-05-07T11:41:05.733Z,97048.78
2023-05-07T11:43:33.718Z,97055.59
2023-05-07T11:46:37.202Z,97051.88
2023-05-07T11:49:03.994Z,97051.03
2023-05-07T11:51:33.396Z,97056.09
2023-05-07T11:53:59.931Z,97051.31
2023-05-07T11:56:44.410Z,97051.03
2023-05-07T11:59:20.063Z,97047.31
2023-05-07T12:12:04.998Z,97039.59
2023-05-07T12:14:31.771Z,97047.31
2023-05-07T12:20:46.085Z,97044.81
2023-05-07T12:23:13.598Z,97044.44
2023-05-07T12:37:04.792Z,97036.84
2023-05-07T12:44:01.953Z,97039.16
2023-05-07T12:46:28.488Z,97036.06
2023-05-07T12:56:17.094Z,97022.06
2023-05-07T13:14:06.014Z,97005.41
2023-05-07T13:16:32.564Z,97007.09
2023-05-07T13:28:09.463Z,97012.72
2023-05-07T13:33:50.657Z,96992.78
2023-05-07T13:47:18.866Z,96976.16
2023-05-07T14:04:42.431Z,96994.47
2023-05-07T14:11:18.889Z,96998.81
2023-05-07T14:17:27.534Z,96999.44
2023-05-07T14:26:47.050Z,96998.78
2023-05-07T14:26:50.618Z,96997.66
2023-05-07T14:29:24.024Z,96999.53
2023-05-07T14:32:09.001Z,97007.66
2023-05-07T14:34:41.983Z,97003.38
2023-05-07T14:37:08.519Z,97006.59
2023-05-07T14:39:37.366Z,96999.44
2023-05-07T14:42:03.904Z,97001.09
2023-05-07T14:44:31.691Z,96997.75
2023-05-07T14:47:05.544Z,97006.13
2023-05-07T14:49:32.045Z,97004.00
2023-05-07T14:52:00.226Z,97010.84
2023-05-07T14:54:26.777Z,97006.03
2023-05-07T14:57:01.212Z,97009.84
2023-05-07T14:59:27.924Z,97007.34
2023-05-07T15:01:55.333Z,97005.41
2023-05-07T15:04:24.880Z,97008.66
2023-05-07T15:06:51.399Z,97001.59
2023-05-07T15:09:17.841Z,97007.84
2023-05-07T15:11:44.387Z,97005.25
2023-05-07T15:14:10.966Z,97017.09
2023-05-07T15:16:37.635Z,97003.06
2023-05-07T15:19:04.140Z,97015.41
2023-05-07T15:21:31.860Z,97006.34
2023-05-07T15:23:58.350Z,97013.72
2023-05-07T15:26:24.828Z,97005.69
2023-05-07T15:28:51.559Z,96998.78
2023-05-07T15:31:18.266Z,97003.00
2023-05-07T15:33:45.691Z,97009.03
2023-05-07T15:36:12.239Z,97011.13
2023-05-07T15:38:38.728Z,97012.53
2023-05-07T15:41:05.377Z,97015.44
2023-05-07T15:43:31.916Z,97011.00
2023-05-07T15:48:25.247Z,97011.56
2023-05-07T15:50:51.831Z,97014.59
2023-05-07T15:53:18.366Z,97018.56
2023-05-07T15:55:45.547Z,97015.25
2023-05-07T15:58:13.085Z,97011.66
2023-05-07T16:00:41.321Z,97012.31
2023-05-07T16:03:08.765Z,97010.81
2023-05-07T16:05:35.560Z,97015.53
2023-05-07T16:08:02.134Z,97024.97
2023-05-07T16:10:28.753Z,97021.56
2023-05-07T16:12:55.398Z,97016.38
2023-05-07T16:15:21.903Z,97015.44
2023-05-07T16:17:49.748Z,97015.84
2023-05-07T16:20:19.803Z,97014.88
2023-05-07T16:22:46.723Z,97013.88
2023-05-07T16:25:14.791Z,97013.88
2023-05-07T16:27:41.685Z,97020.72
2023-05-07T16:30:08.927Z,97015.06
2023-05-07T16:32:36.273Z,97015.69
2023-05-07T16:35:03.412Z,97015.59
2023-05-07T16:37:30.239Z,97014.53
2023-05-07T16:39:56.793Z,97016.03
2023-05-07T16:42:23.332Z,97024.72
2023-05-07T16:44:50.002Z,97018.41
2023-05-07T16:47:16.515Z,97010.28
2023-05-07T16:49:42.999Z,97012.00
2023-05-07T16:52:09.593Z,97011.41
2023-05-07T16:54:37.025Z,97012.59
2023-05-07T16:57:03.748Z,97018.69
2023-05-07T16:59:32.409Z,97012.78
2023-05-07T17:01:59.428Z,97021.81
2023-05-07T17:04:26.333Z,97014.97
2023-05-07T17:06:52.880Z,97024.38
2023-05-07T17:09:19.346Z,97021.91
2023-05-07T17:11:45.846Z,97029.44
2023-05-07T17:14:12.346Z,97026.66
2023-05-07T17:16:38.882Z,97024.16
2023-05-07T17:19:05.445Z,97033.94
2023-05-07T17:21:32.256Z,97036.13
2023-05-07T17:23:58.910Z,97037.50
2023-05-07T17:26:25.530Z,97045.53
2023-05-07T17:28:52.025Z,97051.94
2023-05-07T17:31:18.709Z,97042.56
2023-05-07T17:33:45.267Z,97045.75
2023-05-07T17:36:11.741Z,97050.16
2023-05-07T17:38:38.430Z,97048.66
2023-05-07T17:41:04.978Z,97048.84
2023-05-07T17:43:31.455Z,97050.94
2023-05-07T17:45:58.060Z,97055.28
2023-05-07T17:48:24.913Z,97057.16
2023-05-07T17:50:51.604Z,97058.19
2023-05-07T17:53:18.295Z,97060.38
2023-05-07T17:55:45.393Z,97060.41
2023-05-07T17:58:12.474Z,97067.47
2023-05-07T18:00:39.171Z,97071.28
2023-05-07T18:03:05.922Z,97068.78
2023-05-07T18:05:36.234Z,97071.28
2023-05-07T18:08:02.806Z,97074.97
2023-05-07T18:10:29.336Z,97070.47
2023-05-07T18:12:56.218Z,97071.13
2023-05-07T18:15:22.746Z,97078.31
2023-05-07T18:17:49.294Z,97080.63
2023-05-07T18:20:15.959Z,97083.13
2023-05-07T18:22:42.508Z,97086.47
2023-05-07T18:25:09.317Z,97089.94
2023-05-07T18:27:35.810Z,97099.47
2023-05-07T18:30:02.905Z,97097.22
2023-05-07T18:32:29.535Z,97093.72
2023-05-07T18:34:56.105Z,97083.84
2023-05-07T18:37:24.681Z,97097.84
2023-05-07T18:39:52.583Z,97108.50
2023-05-07T18:42:19.154Z,97111.63
2023-05-07T18:44:45.648Z,97116.94
2023-05-07T18:47:13.710Z,97114.06
2023-05-07T18:49:40.286Z,97118.22
2023-05-07T18:52:06.790Z,97123.53
2023-05-07T18:54:33.333Z,97126.47
2023-05-07T18:56:59.913Z,97127.63
2023-05-07T18:59:26.382Z,97137.81
2023-05-07T19:01:53.170Z,97140.22
2023-05-07T19:04:20.280Z,97147.56
2023-05-07T19:06:47.008Z,97143.53
2023-05-07T19:09:13.502Z,97152.69
2023-05-07T19:11:40.005Z,97146.66
2023-05-07T19:14:06.661Z,97164.09
2023-05-07T19:16:33.345Z,97154.91
2023-05-07T19:18:59.950Z,97163.34
2023-05-07T19:21:28.542Z,97168.31
2023-05-07T19:23:57.328Z,97160.63
2023-05-07T19:26:24.358Z,97165.41
2023-05-07T19:29:01.674Z,97167.41
2023-05-07T19:31:38.496Z,97171.50
2023-05-07T19:34:05.195Z,97168.78
2023-05-07T19:36:34.341Z,97169.25
2023-05-07T19:39:00.959Z,97172.03
2023-05-07T19:41:29.023Z,97178.69
2023-05-07T19:43:55.584Z,97182.19
2023-05-07T19:46:22.226Z,97191.63
2023-05-07T19:48:48.882Z,97201.22
2023-05-07T19:51:15.551Z,97196.31
2023-05-07T19:53:42.184Z,97196.94
2023-05-07T19:56:10.653Z,97198.34
2023-05-07T19:58:37.678Z,97198.97
2023-05-07T20:01:05.313Z,97211.19
2023-05-07T20:03:33.474Z,97208.13
2023-05-07T20:06:00.683Z,97206.16
2023-05-07T20:08:28.143Z,97211.78
2023-05-07T20:10:57.085Z,97218.16
2023-05-07T20:13:24.220Z,97210.59
2023-05-07T20:15:50.920Z,97215.66
2023-05-07T20:18:17.484Z,97211.06
2023-05-07T20:20:45.322Z,97216.13
2023-05-07T20:23:11.980Z,97211.41
2023-05-07T20:25:41.170Z,97211.97
2023-05-07T20:28:07.661Z,97221.38
2023-05-07T20:30:34.191Z,97217.44
2023-05-07T20:33:01.105Z,97227.69
2023-05-07T20:35:27.652Z,97230.91
2023-05-07T20:37:54.195Z,97224.75
2023-05-07T20:40:20.943Z,97233.84
2023-05-07T20:42:47.504Z,97231.31
2023-05-07T20:45:14.175Z,97236.78
2023-05-07T20:47:40.899Z,97243.53
2023-05-07T20:50:07.702Z,97234.16
2023-05-07T20:52:34.994Z,97243.25
2023-05-07T20:55:01.638Z,97247.84
2023-05-07T20:57:28.218Z,97246.75
2023-05-07T20:59:54.766Z,97245.31
2023-05-07T21:02:21.292Z,97255.97
2023-05-07T21:04:51.263Z,97252.72
2023-05-07T21:07:18.156Z,97254.81
2023-05-07T21:09:44.686Z,97257.75
2023-05-07T21:12:11.214Z,97261.78
2023-05-07T21:14:38.721Z,97263.75
2023-05-07T21:17:07.156Z,97257.06
2023-05-07T21:19:34.055Z,97265.16
2023-05-07T21:22:01.007Z,97264.44
2023-05-07T21:24:27.500Z,97264.59
2023-05-07T21:26:55.995Z,97265.72
2023-05-07T21:29:23.845Z,97266.00
2023-05-07T21:31:50.454Z,97261.78
2023-05-07T21:34:17.001Z,97269.03
2023-05-07T21:36:43.532Z,97273.53
2023-05-07T21:39:10.886Z,97266.66
2023-05-07T21:41:37.613Z,97274.06
2023-05-07T21:44:04.719Z,97277.00
2023-05-07T21:46:31.356Z,97279.22
2023-05-07T21:48:57.850Z,97274.06
2023-05-07T21:51:24.409Z,97280.72
2023-05-07T21:53:50.947Z,97281.00
2023-05-07T21:56:17.511Z,97287.56
2023-05-07T21:58:44.018Z,97285.16
2023-05-07T22:01:12.707Z,97287.13
2023-05-07T22:03:39.985Z,97285.72
2023-05-07T22:06:06.941Z,97287.94
2023-05-07T22:08:33.432Z,97284.97
2023-05-07T22:10:59.970Z,97285.22
2023-05-07T22:13:26.677Z,97287.31
2023-05-07T22:15:57.564Z,97291.44
2023-05-07T22:18:25.632Z,97289.75
2023-05-07T22:20:52.375Z,97292.81
2023-05-07T22:23:18.947Z,97296.59
2023-05-07T22:25:45.511Z,97310.22
2023-05-07T22:28:11.974Z,97304.34
2023-05-07T22:30:38.603Z,97300.38
2023-05-07T22:33:05.090Z,97303.16
2023-05-07T22:35:31.692Z,97302.84
2023-05-07T22:37:58.516Z,97300.72
2023-05-07T22:40:25.018Z,97305.16
2023-05-07T22:42:51.581Z,97301.38
2023-05-07T22:45:18.200Z,97300.91
2023-05-07T22:47:44.793Z,97303.09
2023-05-07T22:50:12.721Z,97302.66
2023-05-07T22:52:39.483Z,97304.00
2023-05-07T22:55:06.721Z,97301.03
2023-05-07T22:57:33.240Z,97305.59
2023-05-07T22:59:59.801Z,97302.34
2023-05-07T23:02:28.848Z,97312.63
2023-05-07T23:04:58.239Z,97326.13
2023-05-07T23:07:24.752Z,97319.41
2023-05-07T23:09:51.271Z,97314.34
2023-05-07T23:12:17.933Z,97322.81
2023-05-07T23:14:44.555Z,97324.72
2023-05-07T23:17:11.175Z,97321.38
2023-05-07T23:19:38.222Z,97321.75
2023-05-07T23:22:04.734Z,97318.34
2023-05-07T23:24:31.306Z,97330.06
2023-05-07T23:26:57.819Z,97333.22
2023-05-07T23:29:24.353Z,97331.66
2023-05-07T23:31:51.000Z,97331.91
2023-05-07T23:34:23.696Z,97331.03
2023-05-07T23:36:51.178Z,97333.22
2023-05-07T23:39:18.352Z,97336.00
2023-05-07T23:41:45.279Z,97342.63
2023-05-07T23:44:13.310Z,97331.41
2023-05-07T23:46:39.897Z,97331.53
2023-05-07T23:49:06.440Z,97330.22
2023-05-07T23:51:33.016Z,97327.31
2023-05-07T23:54:00.112Z,97322.53
2023-05-07T23:56:26.674Z,97339.00
2023-05-07T23:58:53.235Z,97341.28
